Nathaniel B. Palmer — WBP3210 — position and weather

sailwx.info

Track history (hours):
 
Tides and Currents Weather Stations Pressure Air Temp Water Temp Dewpoint Dewpoint Depression Visibility Wind Speed Wind Dir Waves Ship Positions

Oceanographic research ship Nathaniel B. Palmer (USA)

Contact: Ethan Norris, ethan.norris.contractor@usap.gov

Detailed information on ship capabilities available from University of Delaware's Ocean Information Center and ARCUS's ALIAS (Arctic Logistics Information and Support) project.

Owner: OFFSHORE SERVICE VESSELS, GALLIANO, LA. More information available from US FCC via Universal Licensing System and Coast Guard Vessel Documentation Center.

Last reported at 2016-Jun-28 07:00 UTC. Time now 2016-Jun-28 07:49 UTC.
Position S 53°06' W 070°54'.

Type: Other ship. MMSI: 366610000.

Wind from 030 at 11 knots

Barometer 1006.2 mb
Air temperature 6.8 ° C
Water temperature 7.8 ° C

Date/timePositionNaut miles runAvg speedWind from/ knotsBaromVisibWave heightAir tempDewpointWater temp
2016-Jun-28 07:00S 53°06' W 070°54'0 0.0 030 / 111006.2 6.8 7.8
2016-Jun-28 06:00S 53°06' W 070°54'0 0.0 030 / 91007.2 7.0 7.8
2016-Jun-28 05:00S 53°06' W 070°54'0 0.0 020 / 91007.9 7.2 7.8
2016-Jun-28 04:00S 53°06' W 070°54'0 0.0 010 / 111008.7 7.4 7.8
2016-Jun-28 03:00S 53°06' W 070°54'0 0.0 1009.1 7.5 7.8
2016-Jun-28 02:00S 53°06' W 070°54'0 0.0 010 / 71009.6 7.4 7.8
2016-Jun-28 01:00S 53°06' W 070°54'0 0.0 1010.2 7.7 7.8
2016-Jun-28 00:00S 53°06' W 070°54'0 0.0 010 / 81010.0 8.4 7.8
2016-Jun-27 23:00S 53°06' W 070°54'0 0.0 360 / 41010.5 9.2 7.8
2016-Jun-27 22:00S 53°06' W 070°54'0 0.0 300 / 31010.2 8.5 7.8
2016-Jun-27 21:00S 53°06' W 070°54'0 0.0 320 / 21010.2 9.2 7.8
2016-Jun-27 20:00S 53°06' W 070°54'0 0.0 240 / 31009.8 9.5 7.8
2016-Jun-27 19:00S 53°06' W 070°54'0 0.0 230 / 71009.6 9.6 7.8
2016-Jun-27 18:00S 53°06' W 070°54'0 0.0 220 / 61009.7 9.7 7.8
2016-Jun-27 17:00S 53°06' W 070°54'0 0.0 250 / 41009.7 9.8 7.8
2016-Jun-27 16:00S 53°06' W 070°54'0 0.0 180 / 21010.1 9.7 7.8
2016-Jun-27 15:00S 53°06' W 070°54'0 0.0 260 / 51009.8 9.1 7.8
2016-Jun-27 14:00S 53°06' W 070°54'0 0.0 260 / 81009.2 9.6 7.8
2016-Jun-27 13:00S 53°06' W 070°54'0 0.0 290 / 141007.8 9.9 7.8
2016-Jun-27 12:00S 53°06' W 070°54'0 0.0 280 / 171007.2 10.2 7.8
2016-Jun-27 11:00S 53°06' W 070°54'0 0.0 270 / 281006.0 11.1 7.8
2016-Jun-27 10:00S 53°06' W 070°54'0 0.0 280 / 151005.0 11.0 7.8
2016-Jun-27 09:00S 53°06' W 070°54'0 0.0 310 / 131003.4 12.1 7.8
2016-Jun-27 08:00S 53°06' W 070°54'0 0.0 330 / 171002.7 12.8 7.8
2016-Jun-27 07:00S 53°06' W 070°54'0 0.0 330 / 171002.4 13.1 7.8
2016-Jun-27 06:00S 53°06' W 070°54'0 0.0 330 / 171002.4 13.0 7.8
2016-Jun-27 05:00S 53°06' W 070°54'0 0.0 340 / 131002.4 13.3 7.8
2016-Jun-27 04:00S 53°06' W 070°54'0 0.0 330 / 171002.2 13.5 7.8
2016-Jun-27 03:00S 53°06' W 070°54'0 0.0 350 / 101002.4 12.4 7.8
2016-Jun-27 02:00S 53°06' W 070°54'0 0.0 050 / 71002.7 9.9 7.8
2016-Jun-27 01:00S 53°06' W 070°54'0 0.0 050 / 111003.2 9.7 7.8
2016-Jun-27 00:00S 53°06' W 070°54'0 0.0 040 / 91003.6 9.5 7.8
2016-Jun-26 23:00S 53°06' W 070°54'0 0.0 060 / 101003.6 8.3 7.8
2016-Jun-26 22:00S 53°06' W 070°54'0 0.0 050 / 111004.5 7.5 7.8
2016-Jun-26 21:00S 53°06' W 070°54'0 0.0 050 / 101005.2 7.5 7.8
2016-Jun-26 20:00S 53°06' W 070°54'0 0.0 050 / 91006.0 7.8 7.8
2016-Jun-26 19:00S 53°06' W 070°54'0 0.0 040 / 101006.7 8.1 7.8
2016-Jun-26 18:00S 53°06' W 070°54'0 0.0 020 / 71007.5 8.7 7.8
2016-Jun-26 17:00S 53°06' W 070°54'0 0.0 020 / 51008.7 9.4 7.8
2016-Jun-26 16:00S 53°06' W 070°54'0 0.0 010 / 71009.9 9.2 7.8
2016-Jun-26 15:00S 53°06' W 070°54'0 0.0 020 / 121009.4 9.0 7.8
2016-Jun-26 14:00S 53°06' W 070°54'0 0.0 040 / 141009.3 8.3 7.8
2016-Jun-26 13:00S 53°06' W 070°54'0 0.0 040 / 141008.7 8.6 7.8
2016-Jun-26 12:00S 53°06' W 070°54'0 0.0 040 / 141008.2 9.0 7.8
2016-Jun-26 11:00S 53°06' W 070°54'0 0.0 050 / 101007.9 9.5 7.8
2016-Jun-26 10:00S 53°06' W 070°54'0 0.0 040 / 61007.2 10.6 7.8
2016-Jun-26 09:00S 53°06' W 070°54'0 0.0 290 / 71006.6 11.2 7.8
2016-Jun-26 08:00S 53°06' W 070°54'0 0.0 290 / 141005.9 11.9 7.8
2016-Jun-26 07:00S 53°06' W 070°54'0 0.0 300 / 151004.9 12.2 7.8
2016-Jun-26 06:00S 53°06' W 070°54'0 0.0 310 / 191004.2 12.2 7.8
2016-Jun-26 05:00S 53°06' W 070°54'0 0.0 310 / 201003.6 12.3 7.8
2016-Jun-26 04:00S 53°06' W 070°54'0 0.0 320 / 161003.9 11.1 7.8
2016-Jun-26 03:00S 53°06' W 070°54'0 0.0 340 / 111004.5 11.6 7.8
2016-Jun-26 02:00S 53°06' W 070°54'0 0.0 040 / 71004.2 9.6 7.8
2016-Jun-26 01:00S 53°06' W 070°54'0 0.0 010 / 71004.8 11.4 7.8
2016-Jun-26 00:00S 53°06' W 070°54'0 0.0 330 / 111005.8 11.4 7.8
2016-Jun-25 23:00S 53°06' W 070°54'0 0.0 010 / 61005.9 10.4 7.8
2016-Jun-25 22:00S 53°06' W 070°54'0 0.0 030 / 71006.1 10.4 7.8
2016-Jun-25 21:00S 53°06' W 070°54'0 0.0 330 / 61006.2 11.6 7.8
2016-Jun-25 20:00S 53°06' W 070°54'0 0.0 320 / 71005.7 12.6 7.8
2016-Jun-25 19:00S 53°06' W 070°54'0 0.0 340 / 81005.2 13.2 7.8
2016-Jun-25 18:00S 53°06' W 070°54'0 0.0 350 / 111005.0 13.0 7.8
2016-Jun-25 17:00S 53°06' W 070°54'0 0.0 040 / 121005.1 10.1 7.8
2016-Jun-25 16:00S 53°06' W 070°54'0 0.0 020 / 91005.4 10.7 7.8
2016-Jun-25 15:00S 53°06' W 070°54'0 0.0 030 / 101005.5 10.7 7.8
2016-Jun-25 14:00S 53°06' W 070°54'0 0.0 350 / 101005.5 10.8 7.8
2016-Jun-25 13:00S 53°06' W 070°54'0 0.0 350 / 141005.2 10.8 7.8
2016-Jun-25 12:00S 53°06' W 070°54'0 0.0 350 / 141005.4 10.9 7.8
2016-Jun-25 11:00S 53°06' W 070°54'0 0.0 330 / 131005.5 10.1 7.8
2016-Jun-25 10:00S 53°06' W 070°54'0 0.0 340 / 131005.3 10.3 7.8
2016-Jun-25 09:00S 53°06' W 070°54'0 0.0 330 / 161005.6 10.7 7.8
2016-Jun-25 08:00S 53°06' W 070°54'0 0.0 360 / 101004.8 10.9 7.8
2016-Jun-25 07:00S 53°06' W 070°54'0 0.0 030 / 111004.0 9.9 7.8
2016-Jun-25 06:00S 53°06' W 070°54'0 0.0 030 / 151003.9 9.8 7.8
2016-Jun-25 05:00S 53°06' W 070°54'0 0.0 030 / 121004.1 10.1 7.8
2016-Jun-25 04:00S 53°06' W 070°54'0 0.0 030 / 131004.3 10.0 7.8
2016-Jun-25 03:00S 53°06' W 070°54'0 0.0 020 / 131004.3 11.0 7.8
2016-Jun-25 02:00S 53°06' W 070°54'0 0.0 020 / 141004.4 10.7 7.8
2016-Jun-25 01:00S 53°06' W 070°54'0 0.0 010 / 141004.8 10.9 7.8
2016-Jun-25 00:00S 53°06' W 070°54'0 0.0 030 / 111004.8 8.9 7.8
2016-Jun-24 23:00S 53°06' W 070°54'0 0.0 030 / 131004.9 8.2 7.8
2016-Jun-24 22:00S 53°06' W 070°54'0 0.0 030 / 151004.9 8.5 7.8
2016-Jun-24 21:00S 53°06' W 070°54'0 0.0 020 / 171004.6 9.2 7.8
2016-Jun-24 20:00S 53°06' W 070°54'0 0.0 040 / 91005.0 7.2 7.8
2016-Jun-24 19:00S 53°06' W 070°54'0 0.0 050 / 101005.3 6.8 7.8
2016-Jun-24 18:00S 53°06' W 070°54'0 0.0 040 / 101005.7 6.3 7.8
2016-Jun-24 17:00S 53°06' W 070°54'0 0.0 040 / 111006.4 5.6 7.8
2016-Jun-24 16:00S 53°06' W 070°54'0 0.0 040 / 121007.1 5.3 7.8
2016-Jun-24 15:00S 53°06' W 070°54'0 0.0 010 / 121007.9 5.7 7.8
2016-Jun-24 14:00S 53°06' W 070°54'0 0.0 020 / 111008.7 5.0 7.8
2016-Jun-24 13:00S 53°06' W 070°54'0 0.0 020 / 131009.1 4.8 7.8
2016-Jun-24 12:00S 53°06' W 070°54'0 0.0 010 / 131009.5 4.3 7.8
2016-Jun-24 11:00S 53°06' W 070°54'0 0.0 020 / 111010.1 3.7 7.8
2016-Jun-24 10:00S 53°06' W 070°54'0 0.0 020 / 101010.5 3.8 7.8
2016-Jun-24 09:00S 53°06' W 070°54'0 0.0 010 / 111010.6 4.5 7.8
2016-Jun-24 08:00S 53°06' W 070°54'0 0.0 360 / 91011.1 5.0 7.8
2016-Jun-24 07:00S 53°06' W 070°54'0 0.0 010 / 51011.2 4.9 7.8
2016-Jun-24 06:00S 53°06' W 070°54'0 0.0 350 / 61011.3 6.0 7.8
2016-Jun-24 05:00S 53°06' W 070°54'0 0.0 310 / 71011.2 6.0 7.8
2016-Jun-24 04:00S 53°06' W 070°54'0 0.0 250 / 51010.5 6.0 7.8
2016-Jun-24 03:00S 53°06' W 070°54'0 0.0 280 / 121009.9 5.5 7.8
2016-Jun-24 02:00S 53°06' W 070°54'0 0.0 270 / 81009.3 5.8 7.8
2016-Jun-24 01:00S 53°06' W 070°54'0 0.0 280 / 171007.7 6.2 7.8
2016-Jun-24 00:00S 53°06' W 070°54'0 0.0 280 / 101007.1 6.6 7.8
2016-Jun-23 23:00S 53°06' W 070°54'0 0.0 270 / 41005.9 6.7 7.8
2016-Jun-23 22:00S 53°06' W 070°54'0 0.0 270 / 81004.9 6.6 7.8
2016-Jun-23 21:00S 53°06' W 070°54'0 0.0 260 / 51003.9 7.3 7.8
2016-Jun-23 20:00S 53°06' W 070°54'0 0.0 300 / 41002.9 8.4 7.8
2016-Jun-23 19:00S 53°06' W 070°54'0 0.0 290 / 91001.9 8.5 7.8
2016-Jun-23 18:00S 53°06' W 070°54'0 0.0 040 / 51001.4 7.7 7.8
2016-Jun-23 17:00S 53°06' W 070°54'0 0.0 330 / 71000.9 7.8 7.8
2016-Jun-23 16:00S 53°06' W 070°54'0 0.0 360 / 41000.2 7.2 7.8
2016-Jun-23 15:00S 53°06' W 070°54'0 0.0 310 / 9999.6 6.4 7.8
2016-Jun-23 14:00S 53°06' W 070°54'0 0.0 240 / 4999.0 5.6 7.8
2016-Jun-23 13:00S 53°06' W 070°54'0 0.0 210 / 3998.3 5.5 7.8
2016-Jun-23 12:00S 53°06' W 070°54'0 0.0 340 / 5997.8 5.9 7.8
2016-Jun-23 11:00S 53°06' W 070°54'0 0.0 040 / 5997.6 5.0 7.8
2016-Jun-23 10:00S 53°06' W 070°54'0 0.0 020 / 8997.6 5.6 7.8
2016-Jun-23 09:00S 53°06' W 070°54'0 0.0 360 / 7997.5 6.2 7.8
2016-Jun-23 08:00S 53°06' W 070°54'0 0.0 020 / 7997.5 5.7 7.8
2016-Jun-23 07:00S 53°06' W 070°54'0 0.0 030 / 7998.2 5.2 7.8
2016-Jun-23 06:00S 53°06' W 070°54'0 0.0 020 / 9998.7 5.7 7.8
2016-Jun-23 05:00S 53°06' W 070°54'0 0.0 020 / 9999.3 5.7 7.8
2016-Jun-23 04:00S 53°06' W 070°54'0 0.0 020 / 121000.2 5.9 7.8
2016-Jun-23 03:00S 53°06' W 070°54'0 0.0 030 / 151000.9 6.1 7.8
2016-Jun-23 02:00S 53°06' W 070°54'0 0.0 050 / 161001.6 5.6 7.8
2016-Jun-23 01:00S 53°06' W 070°54'0 0.0 050 / 171002.9 5.3 7.8
2016-Jun-23 00:00S 53°06' W 070°54'0 0.0 050 / 161003.8 5.2 7.8
2016-Jun-22 23:00S 53°06' W 070°54'0 0.0 040 / 151005.1 5.2 7.8
2016-Jun-22 22:00S 53°06' W 070°54'0 0.0 040 / 111006.4 5.1 7.8
2016-Jun-22 21:00S 53°06' W 070°54'0 0.0 050 / 91007.0 4.8 7.8
2016-Jun-22 20:00S 53°06' W 070°54'0 0.0 040 / 91007.9 4.6 7.8
2016-Jun-22 19:00S 53°06' W 070°54'0 0.0 040 / 81008.9 4.4 7.8
2016-Jun-22 18:00S 53°06' W 070°54'0 0.0 040 / 61009.9 4.5 7.8
2016-Jun-22 17:00S 53°06' W 070°54'0 0.0 010 / 61011.0 4.4 7.8
2016-Jun-22 16:00S 53°06' W 070°54'0 0.0 020 / 111011.9 4.0 7.8
2016-Jun-22 15:00S 53°06' W 070°54'0 0.0 030 / 61012.4 3.8 7.8
2016-Jun-22 14:00S 53°06' W 070°54'0 0.0 010 / 71013.1 3.7 7.8
2016-Jun-22 13:00S 53°06' W 070°54'0 0.0 350 / 51013.3 3.2 7.8
2016-Jun-22 12:00S 53°06' W 070°54'0 0.0 290 / 21013.7 1.9 7.8
2016-Jun-22 11:00S 53°06' W 070°54'0 0.0 270 / 41014.0 1.7 7.8
2016-Jun-22 10:00S 53°06' W 070°54'0 0.0 150 / 21014.0 2.9 7.8
2016-Jun-22 09:00S 53°06' W 070°54'0 0.0 050 / 31014.2 3.8 7.8
2016-Jun-22 08:00S 53°06' W 070°54'0 0.0 230 / 31014.3 4.0 7.8
2016-Jun-22 07:00S 53°06' W 070°54'0 0.0 310 / 61014.8 4.0 7.8
2016-Jun-22 06:00S 53°06' W 070°54'0 0.0 310 / 61014.8 4.1 7.8
2016-Jun-22 05:00S 53°06' W 070°54'0 0.0 290 / 31014.7 4.3 7.8
2016-Jun-22 04:00S 53°06' W 070°54'0 0.0 010 / 51014.7 4.7 7.8
2016-Jun-22 03:00S 53°06' W 070°54'0 0.0 010 / 31014.4 5.4 7.8
2016-Jun-22 02:00S 53°06' W 070°54'0 0.0 280 / 41014.3 5.5 7.8
2016-Jun-22 01:00S 53°06' W 070°54'0 0.0 300 / 51014.1 4.9 7.8
2016-Jun-22 00:00S 53°06' W 070°54'0 0.0 320 / 91013.2 4.7 7.8
2016-Jun-21 23:00S 53°06' W 070°54'0 0.0 270 / 91012.2 5.7 7.8
2016-Jun-21 22:00S 53°06' W 070°54'0 0.0 250 / 101011.0 6.4 7.8
2016-Jun-21 21:00S 53°06' W 070°54'0 0.0 240 / 171009.9 7.1 7.8
2016-Jun-21 20:00S 53°06' W 070°54'0 0.0 260 / 181008.0 8.6 7.8
2016-Jun-21 19:00S 53°06' W 070°54'0 0.0 300 / 261005.7 10.3 7.8
2016-Jun-21 18:00S 53°06' W 070°54'0 0.0 310 / 271005.8 10.3 7.8
2016-Jun-21 17:00S 53°06' W 070°54'0 0.0 310 / 191006.7 10.2 7.8
2016-Jun-21 16:00S 53°06' W 070°54'0 0.0 330 / 121008.0 9.8 7.8
2016-Jun-21 15:00S 53°06' W 070°54'0 0.0 040 / 81008.3 8.3 7.8
2016-Jun-21 14:00S 53°06' W 070°54'0 0.0 030 / 71008.6 8.4 7.8
2016-Jun-21 13:00S 53°06' W 070°54'0 0.0 050 / 121008.8 7.7 7.8
2016-Jun-21 12:00S 53°06' W 070°54'0 0.0 040 / 101009.4 7.4 7.8
2016-Jun-21 11:00S 53°06' W 070°54'0 0.0 030 / 81009.8 7.7 7.8
2016-Jun-21 10:00S 53°06' W 070°54'0 0.0 020 / 91010.2 8.4 7.8
2016-Jun-21 09:00S 53°06' W 070°54'0 0.0 010 / 91010.6 8.4 7.8
2016-Jun-21 08:00S 53°06' W 070°54'0 0.0 350 / 81011.2 8.7 7.8
2016-Jun-21 07:00S 53°06' W 070°54'0 0.0 350 / 81011.5 8.2 7.8
2016-Jun-21 06:00S 53°06' W 070°54'0 0.0 350 / 51012.0 8.6 7.8
2016-Jun-21 05:00S 53°06' W 070°54'4 9.5 350 / 101012.5 8.5 7.8
2016-Jun-21 04:33S 53°10' W 070°54'4 7.6
2016-Jun-21 04:00S 53°06' W 070°54'4 9.5 350 / 91012.9 9.2 7.8
2016-Jun-21 03:33S 53°10' W 070°54'4 7.6
2016-Jun-21 03:00S 53°06' W 070°54'4 9.5 340 / 71013.3 8.2 7.8
2016-Jun-21 02:33S 53°10' W 070°54'4 7.6
2016-Jun-21 02:00S 53°06' W 070°54'4 9.5 030 / 41013.7 6.2 7.8
2016-Jun-21 01:33S 53°10' W 070°54'4 7.6
2016-Jun-21 01:00S 53°06' W 070°54'0 0.0 030 / 91014.1 6.4 7.8
2016-Jun-21 00:00S 53°06' W 070°54'0 0.0 030 / 101014.6 6.9 7.8
2016-Jun-20 23:00S 53°06' W 070°54'0 0.0 020 / 71014.9 7.7 7.8
2016-Jun-20 22:00S 53°06' W 070°54'0 0.0 030 / 91014.9 7.6 7.8
2016-Jun-20 21:00S 53°06' W 070°54'0 0.0 020 / 41014.9 7.6 7.8
2016-Jun-20 20:00S 53°06' W 070°54'0 0.0 170 / 21014.9 7.7 7.8
2016-Jun-20 19:00S 53°06' W 070°54'0 0.0 1014.9 8.1 7.8
2016-Jun-20 18:00S 53°06' W 070°54'0 0.0 060 / 31014.8 7.5 7.8
2016-Jun-20 17:00S 53°06' W 070°54'0 0.0 010 / 51015.2 8.0 7.8
2016-Jun-20 16:00S 53°06' W 070°54'0 0.0 040 / 31015.2 7.4 7.8
2016-Jun-20 15:00S 53°06' W 070°54'0 0.0 1014.9 8.0 7.8
2016-Jun-20 14:00S 53°06' W 070°54'0 0.0 360 / 11014.6 7.4 7.8
2016-Jun-20 13:00S 53°06' W 070°54'0 0.0 130 / 61014.0 7.5 7.8
2016-Jun-20 12:00S 53°06' W 070°54'0 0.0 280 / 41013.1 8.5 7.8
2016-Jun-20 11:00S 53°06' W 070°54'0 0.0 330 / 41012.2 9.1 7.8
2016-Jun-20 10:00S 53°06' W 070°54'0 0.0 250 / 61011.4 10.1 7.8
2016-Jun-20 09:00S 53°06' W 070°54'0 0.0 200 / 61010.6 9.9 7.8
2016-Jun-20 08:00S 53°06' W 070°54'0 0.0 260 / 131010.3 10.1 7.8
2016-Jun-20 07:00S 53°06' W 070°54'0 0.0 270 / 171009.7 9.8 7.8
2016-Jun-20 06:00S 53°06' W 070°54'0 0.0 260 / 111009.1 9.2 7.8
2016-Jun-20 05:00S 53°06' W 070°54'0 0.0 320 / 101009.2 9.1 7.8
2016-Jun-20 04:00S 53°06' W 070°54'0 0.0 320 / 91009.0 8.3 7.8
2016-Jun-20 03:00S 53°06' W 070°54'0 0.0 340 / 91008.7 7.4 7.8
2016-Jun-20 02:00S 53°06' W 070°54'0 0.0 340 / 91008.8 7.6 7.8
2016-Jun-20 01:00S 53°06' W 070°54'0 0.0 1008.9 7.2 7.8
2016-Jun-20 00:00S 53°06' W 070°54'0 0.0 020 / 61009.1 6.5 7.8
2016-Jun-19 23:00S 53°06' W 070°54'0 0.0 030 / 121009.2 5.9 7.8
2016-Jun-19 22:00S 53°06' W 070°54'0 0.0 020 / 131009.8 6.8 7.8
2016-Jun-19 21:00S 53°06' W 070°54'0 0.0 010 / 111010.5 7.4 7.8
2016-Jun-19 20:00S 53°06' W 070°54'0 0.0 360 / 81011.0 8.1 7.8
2016-Jun-19 19:00S 53°06' W 070°54'0 0.0 010 / 91011.6 9.1 7.8
2016-Jun-19 18:00S 53°06' W 070°54'0 0.0 360 / 101012.9 8.8 7.8
2016-Jun-19 17:00S 53°06' W 070°54'0 0.0 340 / 111014.3 7.4 7.8
2016-Jun-19 16:00S 53°06' W 070°54'0 0.0 010 / 71015.5 6.0 7.8
2016-Jun-19 15:00S 53°06' W 070°54'0 0.0 050 / 81016.3 4.6 7.8
2016-Jun-19 14:00S 53°06' W 070°54'0 0.0 010 / 61017.1 5.7 7.8
2016-Jun-19 13:00S 53°06' W 070°54'0 0.0 010 / 71017.8 5.0 7.8
2016-Jun-19 12:00S 53°06' W 070°54'0 0.0 350 / 71018.2 4.8 7.8
2016-Jun-19 11:00S 53°06' W 070°54'0 0.0 360 / 51018.6 5.0 7.8
2016-Jun-19 10:00S 53°06' W 070°54'0 0.0 340 / 91019.1 5.0 7.8
2016-Jun-19 09:00S 53°06' W 070°54'0 0.0 010 / 101019.7 4.6 7.8
2016-Jun-19 08:00S 53°06' W 070°54'0 0.0 010 / 91020.1 5.6 7.8
2016-Jun-19 07:00S 53°06' W 070°54'0 0.0 350 / 81020.3 7.7 7.8
2016-Jun-19 06:00S 53°06' W 070°54'0 0.0 350 / 71020.5 7.1 7.8
2016-Jun-19 05:00S 53°06' W 070°54'0 0.0 330 / 71020.8 7.7 7.8
2016-Jun-19 04:00S 53°06' W 070°54'0 0.0 350 / 61020.8 8.0 7.8
2016-Jun-19 03:00S 53°06' W 070°54'0 0.0 020 / 51021.0 7.6 7.8
2016-Jun-19 02:00S 53°06' W 070°54'0 0.0 020 / 61021.1 7.9 7.8
2016-Jun-19 01:00S 53°06' W 070°54'0 0.0 340 / 71021.4 8.1 7.8
2016-Jun-19 00:00S 53°06' W 070°54'0 0.0 010 / 71021.4 7.4 7.8
2016-Jun-18 23:00S 53°06' W 070°54'0 0.0 350 / 61021.6 8.6 7.8
2016-Jun-18 22:00S 53°06' W 070°54'0 0.0 320 / 71021.7 8.6 7.8
2016-Jun-18 21:00S 53°06' W 070°54'0 0.0 310 / 71021.5 8.9 7.8
2016-Jun-18 20:00S 53°06' W 070°54'0 0.0 290 / 101021.1 9.1 7.8
2016-Jun-18 19:00S 53°06' W 070°54'0 0.0 310 / 71020.7 9.2 7.8
2016-Jun-18 18:00S 53°06' W 070°54'0 0.0 310 / 61020.9 8.7 7.8
2016-Jun-18 17:00S 53°06' W 070°54'0 0.0 300 / 61020.8 8.3 7.8
2016-Jun-18 16:00S 53°06' W 070°54'0 0.0 280 / 41020.8 7.8 7.8
2016-Jun-18 15:00S 53°06' W 070°54'0 0.0 310 / 41020.5 7.3 7.8
2016-Jun-18 14:00S 53°06' W 070°54'0 0.0 260 / 61020.1 6.5 7.8
2016-Jun-18 13:00S 53°06' W 070°54'0 0.0 300 / 41019.7 6.5 7.8
2016-Jun-18 12:00S 53°06' W 070°54'0 0.0 250 / 81019.2 7.0 7.8
2016-Jun-18 11:00S 53°06' W 070°54'0 0.0 240 / 111018.6 7.3 7.8
2016-Jun-18 10:00S 53°06' W 070°54'0 0.0 230 / 111018.1 7.1 7.8
2016-Jun-18 09:00S 53°06' W 070°54'0 0.0 270 / 91017.6 6.5 7.8
2016-Jun-18 08:00S 53°06' W 070°54'0 0.0 300 / 81017.2 5.9 7.8
2016-Jun-18 07:00S 53°06' W 070°54'   270 / 81016.0 5.7 7.8
Track history (hours):
 
Tides and Currents Weather Stations Pressure Air Temp Water Temp Dewpoint Dewpoint Depression Visibility Wind Speed Wind Dir Waves Ship Positions

Oceanographic research ship Nathaniel B. Palmer (USA)

Contact: Ethan Norris, ethan.norris.contractor@usap.gov

Detailed information on ship capabilities available from University of Delaware's Ocean Information Center and ARCUS's ALIAS (Arctic Logistics Information and Support) project.

Owner: OFFSHORE SERVICE VESSELS, GALLIANO, LA. More information available from US FCC via Universal Licensing System and Coast Guard Vessel Documentation Center.

Last reported at 2016-Jun-28 07:00 UTC. Time now 2016-Jun-28 07:49 UTC.
Position S 53°06' W 070°54'.

Type: Other ship. MMSI: 366610000.

Wind from 030 at 11 knots

Barometer 1006.2 mb
Air temperature 6.8 ° C
Water temperature 7.8 ° C

Date/timePositionNaut miles runAvg speedWind from/ knotsBaromVisibWave heightAir tempDewpointWater temp
2016-Jun-28 07:00S 53°06' W 070°54'0 0.0 030 / 111006.2 6.8 7.8
2016-Jun-28 06:00S 53°06' W 070°54'0 0.0 030 / 91007.2 7.0 7.8
2016-Jun-28 05:00S 53°06' W 070°54'0 0.0 020 / 91007.9 7.2 7.8
2016-Jun-28 04:00S 53°06' W 070°54'0 0.0 010 / 111008.7 7.4 7.8
2016-Jun-28 03:00S 53°06' W 070°54'0 0.0 1009.1 7.5 7.8
2016-Jun-28 02:00S 53°06' W 070°54'0 0.0 010 / 71009.6 7.4 7.8
2016-Jun-28 01:00S 53°06' W 070°54'0 0.0 1010.2 7.7 7.8
2016-Jun-28 00:00S 53°06' W 070°54'0 0.0 010 / 81010.0 8.4 7.8
2016-Jun-27 23:00S 53°06' W 070°54'0 0.0 360 / 41010.5 9.2 7.8
2016-Jun-27 22:00S 53°06' W 070°54'0 0.0 300 / 31010.2 8.5 7.8
2016-Jun-27 21:00S 53°06' W 070°54'0 0.0 320 / 21010.2 9.2 7.8
2016-Jun-27 20:00S 53°06' W 070°54'0 0.0 240 / 31009.8 9.5 7.8
2016-Jun-27 19:00S 53°06' W 070°54'0 0.0 230 / 71009.6 9.6 7.8
2016-Jun-27 18:00S 53°06' W 070°54'0 0.0 220 / 61009.7 9.7 7.8
2016-Jun-27 17:00S 53°06' W 070°54'0 0.0 250 / 41009.7 9.8 7.8
2016-Jun-27 16:00S 53°06' W 070°54'0 0.0 180 / 21010.1 9.7 7.8
2016-Jun-27 15:00S 53°06' W 070°54'0 0.0 260 / 51009.8 9.1 7.8
2016-Jun-27 14:00S 53°06' W 070°54'0 0.0 260 / 81009.2 9.6 7.8
2016-Jun-27 13:00S 53°06' W 070°54'0 0.0 290 / 141007.8 9.9 7.8
2016-Jun-27 12:00S 53°06' W 070°54'0 0.0 280 / 171007.2 10.2 7.8
2016-Jun-27 11:00S 53°06' W 070°54'0 0.0 270 / 281006.0 11.1 7.8
2016-Jun-27 10:00S 53°06' W 070°54'0 0.0 280 / 151005.0 11.0 7.8
2016-Jun-27 09:00S 53°06' W 070°54'0 0.0 310 / 131003.4 12.1 7.8
2016-Jun-27 08:00S 53°06' W 070°54'0 0.0 330 / 171002.7 12.8 7.8
2016-Jun-27 07:00S 53°06' W 070°54'0 0.0 330 / 171002.4 13.1 7.8
2016-Jun-27 06:00S 53°06' W 070°54'0 0.0 330 / 171002.4 13.0 7.8
2016-Jun-27 05:00S 53°06' W 070°54'0 0.0 340 / 131002.4 13.3 7.8
2016-Jun-27 04:00S 53°06' W 070°54'0 0.0 330 / 171002.2 13.5 7.8
2016-Jun-27 03:00S 53°06' W 070°54'0 0.0 350 / 101002.4 12.4 7.8
2016-Jun-27 02:00S 53°06' W 070°54'0 0.0 050 / 71002.7 9.9 7.8
2016-Jun-27 01:00S 53°06' W 070°54'0 0.0 050 / 111003.2 9.7 7.8
2016-Jun-27 00:00S 53°06' W 070°54'0 0.0 040 / 91003.6 9.5 7.8
2016-Jun-26 23:00S 53°06' W 070°54'0 0.0 060 / 101003.6 8.3 7.8
2016-Jun-26 22:00S 53°06' W 070°54'0 0.0 050 / 111004.5 7.5 7.8
2016-Jun-26 21:00S 53°06' W 070°54'0 0.0 050 / 101005.2 7.5 7.8
2016-Jun-26 20:00S 53°06' W 070°54'0 0.0 050 / 91006.0 7.8 7.8
2016-Jun-26 19:00S 53°06' W 070°54'0 0.0 040 / 101006.7 8.1 7.8
2016-Jun-26 18:00S 53°06' W 070°54'0 0.0 020 / 71007.5 8.7 7.8
2016-Jun-26 17:00S 53°06' W 070°54'0 0.0 020 / 51008.7 9.4 7.8
2016-Jun-26 16:00S 53°06' W 070°54'0 0.0 010 / 71009.9 9.2 7.8
2016-Jun-26 15:00S 53°06' W 070°54'0 0.0 020 / 121009.4 9.0 7.8
2016-Jun-26 14:00S 53°06' W 070°54'0 0.0 040 / 141009.3 8.3 7.8
2016-Jun-26 13:00S 53°06' W 070°54'0 0.0 040 / 141008.7 8.6 7.8
2016-Jun-26 12:00S 53°06' W 070°54'0 0.0 040 / 141008.2 9.0 7.8
2016-Jun-26 11:00S 53°06' W 070°54'0 0.0 050 / 101007.9 9.5 7.8
2016-Jun-26 10:00S 53°06' W 070°54'0 0.0 040 / 61007.2 10.6 7.8
2016-Jun-26 09:00S 53°06' W 070°54'0 0.0 290 / 71006.6 11.2 7.8
2016-Jun-26 08:00S 53°06' W 070°54'0 0.0 290 / 141005.9 11.9 7.8
2016-Jun-26 07:00S 53°06' W 070°54'0 0.0 300 / 151004.9 12.2 7.8
2016-Jun-26 06:00S 53°06' W 070°54'0 0.0 310 / 191004.2 12.2 7.8
2016-Jun-26 05:00S 53°06' W 070°54'0 0.0 310 / 201003.6 12.3 7.8
2016-Jun-26 04:00S 53°06' W 070°54'0 0.0 320 / 161003.9 11.1 7.8
2016-Jun-26 03:00S 53°06' W 070°54'0 0.0 340 / 111004.5 11.6 7.8
2016-Jun-26 02:00S 53°06' W 070°54'0 0.0 040 / 71004.2 9.6 7.8
2016-Jun-26 01:00S 53°06' W 070°54'0 0.0 010 / 71004.8 11.4 7.8
2016-Jun-26 00:00S 53°06' W 070°54'0 0.0 330 / 111005.8 11.4 7.8
2016-Jun-25 23:00S 53°06' W 070°54'0 0.0 010 / 61005.9 10.4 7.8
2016-Jun-25 22:00S 53°06' W 070°54'0 0.0 030 / 71006.1 10.4 7.8
2016-Jun-25 21:00S 53°06' W 070°54'0 0.0 330 / 61006.2 11.6 7.8
2016-Jun-25 20:00S 53°06' W 070°54'0 0.0 320 / 71005.7 12.6 7.8
2016-Jun-25 19:00S 53°06' W 070°54'0 0.0 340 / 81005.2 13.2 7.8
2016-Jun-25 18:00S 53°06' W 070°54'0 0.0 350 / 111005.0 13.0 7.8
2016-Jun-25 17:00S 53°06' W 070°54'0 0.0 040 / 121005.1 10.1 7.8
2016-Jun-25 16:00S 53°06' W 070°54'0 0.0 020 / 91005.4 10.7 7.8
2016-Jun-25 15:00S 53°06' W 070°54'0 0.0 030 / 101005.5 10.7 7.8
2016-Jun-25 14:00S 53°06' W 070°54'0 0.0 350 / 101005.5 10.8 7.8
2016-Jun-25 13:00S 53°06' W 070°54'0 0.0 350 / 141005.2 10.8 7.8
2016-Jun-25 12:00S 53°06' W 070°54'0 0.0 350 / 141005.4 10.9 7.8
2016-Jun-25 11:00S 53°06' W 070°54'0 0.0 330 / 131005.5 10.1 7.8
2016-Jun-25 10:00S 53°06' W 070°54'0 0.0 340 / 131005.3 10.3 7.8
2016-Jun-25 09:00S 53°06' W 070°54'0 0.0 330 / 161005.6 10.7 7.8
2016-Jun-25 08:00S 53°06' W 070°54'0 0.0 360 / 101004.8 10.9 7.8
2016-Jun-25 07:00S 53°06' W 070°54'0 0.0 030 / 111004.0 9.9 7.8
2016-Jun-25 06:00S 53°06' W 070°54'0 0.0 030 / 151003.9 9.8 7.8
2016-Jun-25 05:00S 53°06' W 070°54'0 0.0 030 / 121004.1 10.1 7.8
2016-Jun-25 04:00S 53°06' W 070°54'0 0.0 030 / 131004.3 10.0 7.8
2016-Jun-25 03:00S 53°06' W 070°54'0 0.0 020 / 131004.3 11.0 7.8
2016-Jun-25 02:00S 53°06' W 070°54'0 0.0 020 / 141004.4 10.7 7.8
2016-Jun-25 01:00S 53°06' W 070°54'0 0.0 010 / 141004.8 10.9 7.8
2016-Jun-25 00:00S 53°06' W 070°54'0 0.0 030 / 111004.8 8.9 7.8
2016-Jun-24 23:00S 53°06' W 070°54'0 0.0 030 / 131004.9 8.2 7.8
2016-Jun-24 22:00S 53°06' W 070°54'0 0.0 030 / 151004.9 8.5 7.8
2016-Jun-24 21:00S 53°06' W 070°54'0 0.0 020 / 171004.6 9.2 7.8
2016-Jun-24 20:00S 53°06' W 070°54'0 0.0 040 / 91005.0 7.2 7.8
2016-Jun-24 19:00S 53°06' W 070°54'0 0.0 050 / 101005.3 6.8 7.8
2016-Jun-24 18:00S 53°06' W 070°54'0 0.0 040 / 101005.7 6.3 7.8
2016-Jun-24 17:00S 53°06' W 070°54'0 0.0 040 / 111006.4 5.6 7.8
2016-Jun-24 16:00S 53°06' W 070°54'0 0.0 040 / 121007.1 5.3 7.8
2016-Jun-24 15:00S 53°06' W 070°54'0 0.0 010 / 121007.9 5.7 7.8
2016-Jun-24 14:00S 53°06' W 070°54'0 0.0 020 / 111008.7 5.0 7.8
2016-Jun-24 13:00S 53°06' W 070°54'0 0.0 020 / 131009.1 4.8 7.8
2016-Jun-24 12:00S 53°06' W 070°54'0 0.0 010 / 131009.5 4.3 7.8
2016-Jun-24 11:00S 53°06' W 070°54'0 0.0 020 / 111010.1 3.7 7.8
2016-Jun-24 10:00S 53°06' W 070°54'0 0.0 020 / 101010.5 3.8 7.8
2016-Jun-24 09:00S 53°06' W 070°54'0 0.0 010 / 111010.6 4.5 7.8
2016-Jun-24 08:00S 53°06' W 070°54'0 0.0 360 / 91011.1 5.0 7.8
2016-Jun-24 07:00S 53°06' W 070°54'0 0.0 010 / 51011.2 4.9 7.8
2016-Jun-24 06:00S 53°06' W 070°54'0 0.0 350 / 61011.3 6.0 7.8
2016-Jun-24 05:00S 53°06' W 070°54'0 0.0 310 / 71011.2 6.0 7.8
2016-Jun-24 04:00S 53°06' W 070°54'0 0.0 250 / 51010.5 6.0 7.8
2016-Jun-24 03:00S 53°06' W 070°54'0 0.0 280 / 121009.9 5.5 7.8
2016-Jun-24 02:00S 53°06' W 070°54'0 0.0 270 / 81009.3 5.8 7.8
2016-Jun-24 01:00S 53°06' W 070°54'0 0.0 280 / 171007.7 6.2 7.8
2016-Jun-24 00:00S 53°06' W 070°54'0 0.0 280 / 101007.1 6.6 7.8
2016-Jun-23 23:00S 53°06' W 070°54'0 0.0 270 / 41005.9 6.7 7.8
2016-Jun-23 22:00S 53°06' W 070°54'0 0.0 270 / 81004.9 6.6 7.8
2016-Jun-23 21:00S 53°06' W 070°54'0 0.0 260 / 51003.9 7.3 7.8
2016-Jun-23 20:00S 53°06' W 070°54'0 0.0 300 / 41002.9 8.4 7.8
2016-Jun-23 19:00S 53°06' W 070°54'0 0.0 290 / 91001.9 8.5 7.8
2016-Jun-23 18:00S 53°06' W 070°54'0 0.0 040 / 51001.4 7.7 7.8
2016-Jun-23 17:00S 53°06' W 070°54'0 0.0 330 / 71000.9 7.8 7.8
2016-Jun-23 16:00S 53°06' W 070°54'0 0.0 360 / 41000.2 7.2 7.8
2016-Jun-23 15:00S 53°06' W 070°54'0 0.0 310 / 9999.6 6.4 7.8
2016-Jun-23 14:00S 53°06' W 070°54'0 0.0 240 / 4999.0 5.6 7.8
2016-Jun-23 13:00S 53°06' W 070°54'0 0.0 210 / 3998.3 5.5 7.8
2016-Jun-23 12:00S 53°06' W 070°54'0 0.0 340 / 5997.8 5.9 7.8
2016-Jun-23 11:00S 53°06' W 070°54'0 0.0 040 / 5997.6 5.0 7.8
2016-Jun-23 10:00S 53°06' W 070°54'0 0.0 020 / 8997.6 5.6 7.8
2016-Jun-23 09:00S 53°06' W 070°54'0 0.0 360 / 7997.5 6.2 7.8
2016-Jun-23 08:00S 53°06' W 070°54'0 0.0 020 / 7997.5 5.7 7.8
2016-Jun-23 07:00S 53°06' W 070°54'0 0.0 030 / 7998.2 5.2 7.8
2016-Jun-23 06:00S 53°06' W 070°54'0 0.0 020 / 9998.7 5.7 7.8
2016-Jun-23 05:00S 53°06' W 070°54'0 0.0 020 / 9999.3 5.7 7.8
2016-Jun-23 04:00S 53°06' W 070°54'0 0.0 020 / 121000.2 5.9 7.8
2016-Jun-23 03:00S 53°06' W 070°54'0 0.0 030 / 151000.9 6.1 7.8
2016-Jun-23 02:00S 53°06' W 070°54'0 0.0 050 / 161001.6 5.6 7.8
2016-Jun-23 01:00S 53°06' W 070°54'0 0.0 050 / 171002.9 5.3 7.8
2016-Jun-23 00:00S 53°06' W 070°54'0 0.0 050 / 161003.8 5.2 7.8
2016-Jun-22 23:00S 53°06' W 070°54'0 0.0 040 / 151005.1 5.2 7.8
2016-Jun-22 22:00S 53°06' W 070°54'0 0.0 040 / 111006.4 5.1 7.8
2016-Jun-22 21:00S 53°06' W 070°54'0 0.0 050 / 91007.0 4.8 7.8
2016-Jun-22 20:00S 53°06' W 070°54'0 0.0 040 / 91007.9 4.6 7.8
2016-Jun-22 19:00S 53°06' W 070°54'0 0.0 040 / 81008.9 4.4 7.8
2016-Jun-22 18:00S 53°06' W 070°54'0 0.0 040 / 61009.9 4.5 7.8
2016-Jun-22 17:00S 53°06' W 070°54'0 0.0 010 / 61011.0 4.4 7.8
2016-Jun-22 16:00S 53°06' W 070°54'0 0.0 020 / 111011.9 4.0 7.8
2016-Jun-22 15:00S 53°06' W 070°54'0 0.0 030 / 61012.4 3.8 7.8
2016-Jun-22 14:00S 53°06' W 070°54'0 0.0 010 / 71013.1 3.7 7.8
2016-Jun-22 13:00S 53°06' W 070°54'0 0.0 350 / 51013.3 3.2 7.8
2016-Jun-22 12:00S 53°06' W 070°54'0 0.0 290 / 21013.7 1.9 7.8
2016-Jun-22 11:00S 53°06' W 070°54'0 0.0 270 / 41014.0 1.7 7.8
2016-Jun-22 10:00S 53°06' W 070°54'0 0.0 150 / 21014.0 2.9 7.8
2016-Jun-22 09:00S 53°06' W 070°54'0 0.0 050 / 31014.2 3.8 7.8
2016-Jun-22 08:00S 53°06' W 070°54'0 0.0 230 / 31014.3 4.0 7.8
2016-Jun-22 07:00S 53°06' W 070°54'0 0.0 310 / 61014.8 4.0 7.8
2016-Jun-22 06:00S 53°06' W 070°54'0 0.0 310 / 61014.8 4.1 7.8
2016-Jun-22 05:00S 53°06' W 070°54'0 0.0 290 / 31014.7 4.3 7.8
2016-Jun-22 04:00S 53°06' W 070°54'0 0.0 010 / 51014.7 4.7 7.8
2016-Jun-22 03:00S 53°06' W 070°54'0 0.0 010 / 31014.4 5.4 7.8
2016-Jun-22 02:00S 53°06' W 070°54'0 0.0 280 / 41014.3 5.5 7.8
2016-Jun-22 01:00S 53°06' W 070°54'0 0.0 300 / 51014.1 4.9 7.8
2016-Jun-22 00:00S 53°06' W 070°54'0 0.0 320 / 91013.2 4.7 7.8
2016-Jun-21 23:00S 53°06' W 070°54'0 0.0 270 / 91012.2 5.7 7.8
2016-Jun-21 22:00S 53°06' W 070°54'0 0.0 250 / 101011.0 6.4 7.8
2016-Jun-21 21:00S 53°06' W 070°54'0 0.0 240 / 171009.9 7.1 7.8
2016-Jun-21 20:00S 53°06' W 070°54'0 0.0 260 / 181008.0 8.6 7.8
2016-Jun-21 19:00S 53°06' W 070°54'0 0.0 300 / 261005.7 10.3 7.8
2016-Jun-21 18:00S 53°06' W 070°54'0 0.0 310 / 271005.8 10.3 7.8
2016-Jun-21 17:00S 53°06' W 070°54'0 0.0 310 / 191006.7 10.2 7.8
2016-Jun-21 16:00S 53°06' W 070°54'0 0.0 330 / 121008.0 9.8 7.8
2016-Jun-21 15:00S 53°06' W 070°54'0 0.0 040 / 81008.3 8.3 7.8
2016-Jun-21 14:00S 53°06' W 070°54'0 0.0 030 / 71008.6 8.4 7.8
2016-Jun-21 13:00S 53°06' W 070°54'0 0.0 050 / 121008.8 7.7 7.8
2016-Jun-21 12:00S 53°06' W 070°54'0 0.0 040 / 101009.4 7.4 7.8
2016-Jun-21 11:00S 53°06' W 070°54'0 0.0 030 / 81009.8 7.7 7.8
2016-Jun-21 10:00S 53°06' W 070°54'0 0.0 020 / 91010.2 8.4 7.8
2016-Jun-21 09:00S 53°06' W 070°54'0 0.0 010 / 91010.6 8.4 7.8
2016-Jun-21 08:00S 53°06' W 070°54'0 0.0 350 / 81011.2 8.7 7.8
2016-Jun-21 07:00S 53°06' W 070°54'0 0.0 350 / 81011.5 8.2 7.8
2016-Jun-21 06:00S 53°06' W 070°54'0 0.0 350 / 51012.0 8.6 7.8
2016-Jun-21 05:00S 53°06' W 070°54'4 9.5 350 / 101012.5 8.5 7.8
2016-Jun-21 04:33S 53°10' W 070°54'4 7.6
2016-Jun-21 04:00S 53°06' W 070°54'4 9.5 350 / 91012.9 9.2 7.8
2016-Jun-21 03:33S 53°10' W 070°54'4 7.6
2016-Jun-21 03:00S 53°06' W 070°54'4 9.5 340 / 71013.3 8.2 7.8
2016-Jun-21 02:33S 53°10' W 070°54'4 7.6
2016-Jun-21 02:00S 53°06' W 070°54'4 9.5 030 / 41013.7 6.2 7.8
2016-Jun-21 01:33S 53°10' W 070°54'4 7.6
2016-Jun-21 01:00S 53°06' W 070°54'0 0.0 030 / 91014.1 6.4 7.8
2016-Jun-21 00:00S 53°06' W 070°54'0 0.0 030 / 101014.6 6.9 7.8
2016-Jun-20 23:00S 53°06' W 070°54'0 0.0 020 / 71014.9 7.7 7.8
2016-Jun-20 22:00S 53°06' W 070°54'0 0.0 030 / 91014.9 7.6 7.8
2016-Jun-20 21:00S 53°06' W 070°54'0 0.0 020 / 41014.9 7.6 7.8
2016-Jun-20 20:00S 53°06' W 070°54'0 0.0 170 / 21014.9 7.7 7.8
2016-Jun-20 19:00S 53°06' W 070°54'0 0.0 1014.9 8.1 7.8
2016-Jun-20 18:00S 53°06' W 070°54'0 0.0 060 / 31014.8 7.5 7.8
2016-Jun-20 17:00S 53°06' W 070°54'0 0.0 010 / 51015.2 8.0 7.8
2016-Jun-20 16:00S 53°06' W 070°54'0 0.0 040 / 31015.2 7.4 7.8
2016-Jun-20 15:00S 53°06' W 070°54'0 0.0 1014.9 8.0 7.8
2016-Jun-20 14:00S 53°06' W 070°54'0 0.0 360 / 11014.6 7.4 7.8
2016-Jun-20 13:00S 53°06' W 070°54'0 0.0 130 / 61014.0 7.5 7.8
2016-Jun-20 12:00S 53°06' W 070°54'0 0.0 280 / 41013.1 8.5 7.8
2016-Jun-20 11:00S 53°06' W 070°54'0 0.0 330 / 41012.2 9.1 7.8
2016-Jun-20 10:00S 53°06' W 070°54'0 0.0 250 / 61011.4 10.1 7.8
2016-Jun-20 09:00S 53°06' W 070°54'0 0.0 200 / 61010.6 9.9 7.8
2016-Jun-20 08:00S 53°06' W 070°54'0 0.0 260 / 131010.3 10.1 7.8
2016-Jun-20 07:00S 53°06' W 070°54'0 0.0 270 / 171009.7 9.8 7.8
2016-Jun-20 06:00S 53°06' W 070°54'0 0.0 260 / 111009.1 9.2 7.8
2016-Jun-20 05:00S 53°06' W 070°54'0 0.0 320 / 101009.2 9.1 7.8
2016-Jun-20 04:00S 53°06' W 070°54'0 0.0 320 / 91009.0 8.3 7.8
2016-Jun-20 03:00S 53°06' W 070°54'0 0.0 340 / 91008.7 7.4 7.8
2016-Jun-20 02:00S 53°06' W 070°54'0 0.0 340 / 91008.8 7.6 7.8
2016-Jun-20 01:00S 53°06' W 070°54'0 0.0 1008.9 7.2 7.8
2016-Jun-20 00:00S 53°06' W 070°54'0 0.0 020 / 61009.1 6.5 7.8
2016-Jun-19 23:00S 53°06' W 070°54'0 0.0 030 / 121009.2 5.9 7.8
2016-Jun-19 22:00S 53°06' W 070°54'0 0.0 020 / 131009.8 6.8 7.8
2016-Jun-19 21:00S 53°06' W 070°54'0 0.0 010 / 111010.5 7.4 7.8
2016-Jun-19 20:00S 53°06' W 070°54'0 0.0 360 / 81011.0 8.1 7.8
2016-Jun-19 19:00S 53°06' W 070°54'0 0.0 010 / 91011.6 9.1 7.8
2016-Jun-19 18:00S 53°06' W 070°54'0 0.0 360 / 101012.9 8.8 7.8
2016-Jun-19 17:00S 53°06' W 070°54'0 0.0 340 / 111014.3 7.4 7.8
2016-Jun-19 16:00S 53°06' W 070°54'0 0.0 010 / 71015.5 6.0 7.8
2016-Jun-19 15:00S 53°06' W 070°54'0 0.0 050 / 81016.3 4.6 7.8
2016-Jun-19 14:00S 53°06' W 070°54'0 0.0 010 / 61017.1 5.7 7.8
2016-Jun-19 13:00S 53°06' W 070°54'0 0.0 010 / 71017.8 5.0 7.8
2016-Jun-19 12:00S 53°06' W 070°54'0 0.0 350 / 71018.2 4.8 7.8
2016-Jun-19 11:00S 53°06' W 070°54'0 0.0 360 / 51018.6 5.0 7.8
2016-Jun-19 10:00S 53°06' W 070°54'0 0.0 340 / 91019.1 5.0 7.8
2016-Jun-19 09:00S 53°06' W 070°54'0 0.0 010 / 101019.7 4.6 7.8
2016-Jun-19 08:00S 53°06' W 070°54'0 0.0 010 / 91020.1 5.6 7.8
2016-Jun-19 07:00S 53°06' W 070°54'0 0.0 350 / 81020.3 7.7 7.8
2016-Jun-19 06:00S 53°06' W 070°54'0 0.0 350 / 71020.5 7.1 7.8
2016-Jun-19 05:00S 53°06' W 070°54'0 0.0 330 / 71020.8 7.7 7.8
2016-Jun-19 04:00S 53°06' W 070°54'0 0.0 350 / 61020.8 8.0 7.8
2016-Jun-19 03:00S 53°06' W 070°54'0 0.0 020 / 51021.0 7.6 7.8
2016-Jun-19 02:00S 53°06' W 070°54'0 0.0 020 / 61021.1 7.9 7.8
2016-Jun-19 01:00S 53°06' W 070°54'0 0.0 340 / 71021.4 8.1 7.8
2016-Jun-19 00:00S 53°06' W 070°54'0 0.0 010 / 71021.4 7.4 7.8
2016-Jun-18 23:00S 53°06' W 070°54'0 0.0 350 / 61021.6 8.6 7.8
2016-Jun-18 22:00S 53°06' W 070°54'0 0.0 320 / 71021.7 8.6 7.8
2016-Jun-18 21:00S 53°06' W 070°54'0 0.0 310 / 71021.5 8.9 7.8
2016-Jun-18 20:00S 53°06' W 070°54'0 0.0 290 / 101021.1 9.1 7.8
2016-Jun-18 19:00S 53°06' W 070°54'0 0.0 310 / 71020.7 9.2 7.8
2016-Jun-18 18:00S 53°06' W 070°54'0 0.0 310 / 61020.9 8.7 7.8
2016-Jun-18 17:00S 53°06' W 070°54'0 0.0 300 / 61020.8 8.3 7.8
2016-Jun-18 16:00S 53°06' W 070°54'0 0.0 280 / 41020.8 7.8 7.8
2016-Jun-18 15:00S 53°06' W 070°54'0 0.0 310 / 41020.5 7.3 7.8
2016-Jun-18 14:00S 53°06' W 070°54'0 0.0 260 / 61020.1 6.5 7.8
2016-Jun-18 13:00S 53°06' W 070°54'0 0.0 300 / 41019.7 6.5 7.8
2016-Jun-18 12:00S 53°06' W 070°54'0 0.0 250 / 81019.2 7.0 7.8
2016-Jun-18 11:00S 53°06' W 070°54'0 0.0 240 / 111018.6 7.3 7.8
2016-Jun-18 10:00S 53°06' W 070°54'0 0.0 230 / 111018.1 7.1 7.8
2016-Jun-18 09:00S 53°06' W 070°54'0 0.0 270 / 91017.6 6.5 7.8
2016-Jun-18 08:00S 53°06' W 070°54'0 0.0 300 / 81017.2 5.9 7.8
2016-Jun-18 07:00S 53°06' W 070°54'   270 / 81016.0 5.7 7.8

Dump ship's entire track history